Flight Track Log - Related Links

Times and Time Zones

All times are in EDT time to prevent confusion due to time zone crossing. See the SLI2114 flight status page for this flight to view local times or setup timezone preferences in your user account.

Time Position Orientation Groundspeed Altitude Reporting Facility
EDT Latitude Longitude Course Direction KTS MPH feet Rate Location/Type
Thu 09:10:00 PM 25.0032 -105.9672 263° West  Level Estimated
Thu 09:11:00 PM 24.9867 -106.0750 260° West  Level Estimated
Thu 09:12:00 PM 24.9701 -106.1827 260° West  Level Estimated
Thu 09:13:00 PM 24.9534 -106.2904 260° West  Level Estimated
Thu 09:14:00 PM 24.9366 -106.3981 260° West  Level Estimated
Thu 09:15:00 PM 24.9198 -106.5058 260° West  Level Estimated
Thu 09:16:00 PM 24.9029 -106.6134 260° West  Level Estimated
Thu 09:17:00 PM 24.8859 -106.7210 260° West  Level Estimated
Thu 09:18:00 PM 24.8688 -106.8286 260° West  Level Estimated
Thu 09:19:00 PM 24.8517 -106.9362 260° West  Level Estimated
Thu 09:20:00 PM 24.8344 -107.0437 260° West  Level Estimated
Thu 09:21:00 PM 24.8171 -107.1512 260° West  Level Estimated
Thu 09:22:00 PM 24.7997 -107.2587 260° West  Level Estimated
Thu 09:23:00 PM 24.7823 -107.3661 260° West  Level Estimated
Thu 09:24:00 PM 24.7647 -107.4735 260° West  Level Estimated
Thu 09:25:00 PM 24.7645 -107.4747 260° West  Level Estimated
Thu 09:26:00 PM 24.7645 -107.4747 138° Southeast  Level Estimated
Thu 09:27:00 PM 24.7645 -107.4747 138° Southeast  Level Estimated
Thu 09:28:00 PM 24.7645 -107.4747 138° Southeast  Level Estimated
Thu 09:29:00 PM 24.7645 -107.4747 138° Southeast  Level Estimated
Thu 09:30:00 PM 24.7645 -107.4747 138° Southeast  Level Estimated
Thu 09:31:00 PM 24.7645 -107.4747 138° Southeast  Level Estimated
Thu 09:32:00 PM 24.7645 -107.4747 138° Southeast  Level Estimated
Thu 09:33:00 PM 24.7645 -107.4747 138° Southeast  Level Estimated
Thu 09:34:00 PM 24.7645 -107.4747 138° Southeast  Level Estimated
Thu 09:35:00 PM 24.7645 -107.4747 138° Southeast  Level Estimated
Thu 09:36:00 PM 24.7645 -107.4747 138° Southeast  Level Estimated
Thu 09:37:00 PM 24.7645 -107.4747 138° Southeast  Level Estimated
Thu 09:38:00 PM 24.7645 -107.4747 138° Southeast  Level Estimated
Thu 09:39:00 PM 24.7645 -107.4747 138° Southeast  Level Estimated
Thu 09:40:00 PM 24.7645 -107.4747 138° Southeast  Level Estimated

Login

Don't have an account? Register now (free) for customized features, flight alerts, and more!